Weather
South African Flight Training AcademyBookingsEnt 1055(rendered 2017-02-25 10:57:24) Member: Guest [23.22.53.106- private]
Go back one day  Today  Go forward one day
00h00-24h00  00h00-12h00  12h00-24h00  05h00-22h00  08h00-18h00   Bookingsheet Key 

Sunrise: 06:34B

Full view Bookings for Saturday, 25th February 2017

Sunset: 18:07B

 05h0006h0007h0008h0009h0010h0011h0012h0013h0014h0015h0016h0017h0018h0019h0020h0021h00

ZS-EVM

Piper 4 Seater Fixed Gear Fixed Pitch

ZS-FHF

Piper 4 Seater Fixed Gear Fixed Pitch

ZS-IHJ

Raytheon Private Aircraft

ZS-JBP

Cessna 4 Seater Fixed Gear/Pitch

ZS-JPH

Beechcraft Private Aircraft

ZS-JVH

Cessna 4 Seater Fixed Gear/Pitch

ZS-KXO

Cessna 4 Seater Trainer

ZS-KZE

Beechcraft Private Aircraft

ZS-MAE

Cessna 4 Seater Fixed Gear/Pitch

ZS-MPF

Cessna 4 Seater Fixed Gear/Pitch

ZS-NFS

Cessna 4 Seater Fixed Gear/Pitch

ZS-OFV

Cessna 4 Seater Fixed Gear/Pitch

ZS-OHU

Piper 4 Seater Fixed Gear Fixed Pitch

ZS-PNV

Cessna 2 Seater Trainer

ZS-PSL

Cessna 4 Seater Fixed Gear/Pitch

ZS-PZD

Cessna 2 Seater Trainer

ZS-PZF

CESSNA Cessna 182T - Private

ZS-RIO

CESSNA Cessna 182T - Private

ZS-SAA

Cessna 4 Seater Fixed Gear/Pitch

ZS-SAE

Cessna 4 Seater Fixed Gear/Pitch

ZS-SCP

Cessna 2 Seater Trainer

ZS-SSG

Cessna 2 Seater Trainer

ZS-SVC

Cessna 4 Seater Fixed Gear/Pitch

ZS-DWC

Cessna 2 Seater Trainer

FAOR METAR 250830Z 30004KT 250V340 9999 BKN015 20/16 Q1024 NOSIG
FALA METAR 250800Z 02004KT 310V080 9999 BKN015 21/17 Q1023 NOSIG

GASSER ABDO

GROUND INSTRUCTOR

WASEEM BADROODIEN

INSTRUCTOR

ZAINAB BHABHA

INSTRUCTOR

WERNER BOTHA

INSTRUCTOR

VUMILE DLAMINI

INSTRUCTOR

JACO DREYER

INSTRUCTOR, CFI

JACQUES GALE

INSTRUCTOR

AVINASH LOTCHER

INSTRUCTOR

SIMBARASHE MAVHERA

INSTRUCTOR

TSHWANELO MOROOSELE

INSTRUCTOR

MLONDI MTHETHWA

INSTRUCTOR

XABISO NTLOKO

INSTRUCTOR

TAFADZWA NYAKUDYA

INSTRUCTOR

DANIEL VAN DER MERWE

INSTRUCTOR, CGI

NTULI ZELDAH

INSTRUCTOR

FAOR TAFAMD 250700Z 2506/2612 VRB04KT 7000 BKN005    BECMG 2509/2511 25007KT 9999 BKN015    PROB30 TEMPO 2511/2517 -TSRA FEW030CB BKN035    BECMG 2513/2515 19007KT SCT025    BECMG 2521/2523 11010KT    BECMG 2600/2602 BKN010    TEMPO 2602/2607 3000 BR BKN005    PROB30 TEMPO 2603/2606 0800 FG    BECMG 2607/2609 SCT035    TX25/2612ZTN15/2603Z
FALA TAFAMD 250700Z 2506/2606 VRB03KT 9999 BKN010    BECMG 2507/2509 27005KT BKN018    PROB30 TEMPO 2511/2517 -TSRA FEW035CB BKN040    BECMG 2513/2515 21005KT    BECMG 2521/2523 13008KT    BECMG 2600/2602 BKN015    PROB30 TEMPO 2602/2606 5000 BR BKN010    TX26/2513ZTN16/2603Z

Briefing1

Briefing room 1

 05h0006h0007h0008h0009h0010h0011h0012h0013h0014h0015h0016h0017h0018h0019h0020h0021h00

index.php last modified on Wed 13 Jun 2012 7:48 PM